createdAt,value
2018-05-27T00:02:11.169Z,21.43
2018-05-27T00:04:40.076Z,21.03
2018-05-27T00:07:08.857Z,20.86
2018-05-27T00:09:37.633Z,21.09
2018-05-27T00:12:06.443Z,21.23
2018-05-27T00:14:35.231Z,21.27
2018-05-27T00:17:04.253Z,21.25
2018-05-27T00:19:33.067Z,21.24
2018-05-27T00:22:01.812Z,21.37
2018-05-27T00:24:30.558Z,21.36
2018-05-27T00:26:59.406Z,21.28
2018-05-27T00:29:28.184Z,21.10
2018-05-27T00:31:56.962Z,21.19
2018-05-27T00:34:25.783Z,21.07
2018-05-27T00:36:55.330Z,20.93
2018-05-27T00:39:24.118Z,20.81
2018-05-27T00:41:52.944Z,20.77
2018-05-27T00:44:21.760Z,20.86
2018-05-27T00:46:50.553Z,20.78
2018-05-27T00:49:23.166Z,20.82
2018-05-27T00:51:55.262Z,20.89
2018-05-27T00:54:32.148Z,20.92
2018-05-27T00:57:02.963Z,20.94
2018-05-27T00:59:35.503Z,21.00
2018-05-27T01:02:05.810Z,21.07
2018-05-27T01:04:41.369Z,20.68
2018-05-27T01:07:17.228Z,20.52
2018-05-27T01:09:51.578Z,20.73
2018-05-27T01:12:26.632Z,20.40
2018-05-27T01:15:01.428Z,20.13
2018-05-27T01:17:38.460Z,20.19
2018-05-27T01:20:13.396Z,20.38
2018-05-27T01:22:48.034Z,20.41
2018-05-27T01:25:22.015Z,20.21
2018-05-27T01:27:58.067Z,20.01
2018-05-27T01:30:34.113Z,20.05
2018-05-27T01:33:12.081Z,20.26
2018-05-27T01:35:52.720Z,20.46
2018-05-27T01:38:28.911Z,20.57
2018-05-27T01:41:03.678Z,20.50
2018-05-27T01:43:34.374Z,20.55
2018-05-27T01:46:06.183Z,20.44
2018-05-27T01:48:36.519Z,20.23
2018-05-27T01:51:14.509Z,20.36
2018-05-27T01:53:45.186Z,20.41
2018-05-27T01:56:18.752Z,20.23
2018-05-27T01:58:50.784Z,20.29
2018-05-27T02:01:25.021Z,20.47
2018-05-27T02:04:03.106Z,20.53
2018-05-27T02:06:37.065Z,20.62
2018-05-27T02:09:12.291Z,20.50
2018-05-27T02:11:47.791Z,20.54
2018-05-27T02:14:24.829Z,20.58
2018-05-27T02:19:38.819Z,20.54
2018-05-27T02:22:14.700Z,20.54
2018-05-27T02:24:47.481Z,20.52
2018-05-27T02:27:24.562Z,20.36
2018-05-27T02:29:59.327Z,20.33
2018-05-27T02:32:32.094Z,20.52
2018-05-27T02:35:10.695Z,20.52
2018-05-27T02:37:45.071Z,20.45
2018-05-27T02:40:21.405Z,20.34
2018-05-27T02:42:55.443Z,20.38
2018-05-27T02:45:28.490Z,20.43
2018-05-27T02:48:02.045Z,20.05
2018-05-27T02:50:35.603Z,20.09
2018-05-27T02:53:08.638Z,20.14
2018-05-27T02:55:43.041Z,20.01
2018-05-27T02:58:17.147Z,20.15
2018-05-27T03:00:48.168Z,20.01
2018-05-27T03:03:24.408Z,20.08
2018-05-27T03:05:57.719Z,20.12
2018-05-27T03:08:37.016Z,20.13
2018-05-27T03:11:14.031Z,20.02
2018-05-27T03:16:23.387Z,19.71
2018-05-27T03:18:57.238Z,19.81
2018-05-27T03:21:26.809Z,19.95
2018-05-27T03:23:55.631Z,20.04
2018-05-27T03:26:24.389Z,20.03
2018-05-27T03:28:53.164Z,20.07
2018-05-27T03:31:21.953Z,20.00
2018-05-27T03:33:50.707Z,20.18
2018-05-27T03:36:19.464Z,20.28
2018-05-27T03:38:48.229Z,20.32
2018-05-27T03:41:17.019Z,20.25
2018-05-27T03:43:45.761Z,20.20
2018-05-27T03:46:15.426Z,20.30
2018-05-27T03:48:45.279Z,20.43
2018-05-27T03:51:14.076Z,20.60
2018-05-27T03:53:42.892Z,20.79
2018-05-27T03:56:11.677Z,20.88
2018-05-27T03:58:40.451Z,20.88
2018-05-27T04:01:10.000Z,20.75
2018-05-27T04:03:38.718Z,20.41
2018-05-27T04:06:19.273Z,20.52
2018-05-27T04:08:48.959Z,20.77
2018-05-27T04:11:19.353Z,21.09
2018-05-27T04:13:48.154Z,21.37
2018-05-27T04:16:16.905Z,21.50
2018-05-27T04:18:45.925Z,21.63
2018-05-27T04:21:14.712Z,21.63
2018-05-27T04:23:43.457Z,21.53
2018-05-27T04:26:12.264Z,21.15
2018-05-27T04:28:41.097Z,21.20
2018-05-27T04:31:09.849Z,21.27
2018-05-27T04:33:38.613Z,21.69
2018-05-27T04:36:07.545Z,22.08
2018-05-27T04:38:37.051Z,22.32
2018-05-27T04:41:05.927Z,22.48
2018-05-27T04:43:34.659Z,22.49
2018-05-27T04:46:04.194Z,22.27
2018-05-27T04:48:32.949Z,22.14
2018-05-27T04:51:01.716Z,22.47
2018-05-27T04:53:30.470Z,22.80
2018-05-27T04:55:59.332Z,22.90
2018-05-27T04:58:28.145Z,22.68
2018-05-27T05:00:56.926Z,22.92
2018-05-27T05:03:25.674Z,23.14
2018-05-27T05:05:54.526Z,23.49
2018-05-27T05:08:23.358Z,23.39
2018-05-27T05:10:52.125Z,23.80
2018-05-27T05:13:20.934Z,24.10
2018-05-27T05:15:49.686Z,24.46
2018-05-27T05:18:18.577Z,24.66
2018-05-27T05:20:47.388Z,24.83
2018-05-27T05:23:17.003Z,25.28
2018-05-27T05:25:45.744Z,25.10
2018-05-27T05:28:14.509Z,25.20
2018-05-27T05:30:43.300Z,25.42
2018-05-27T05:33:12.071Z,25.46
2018-05-27T05:35:41.622Z,25.62
2018-05-27T05:38:10.384Z,26.04
2018-05-27T05:40:39.204Z,25.84
2018-05-27T05:43:07.978Z,25.87
2018-05-27T05:45:36.793Z,26.00
2018-05-27T05:48:05.563Z,26.19
2018-05-27T05:50:34.396Z,26.35
2018-05-27T05:53:03.154Z,26.41
2018-05-27T05:55:31.950Z,26.43
2018-05-27T05:58:00.686Z,26.82
2018-05-27T06:00:29.458Z,26.70
2018-05-27T06:02:58.254Z,26.65
2018-05-27T06:05:27.037Z,27.28
2018-05-27T06:07:55.768Z,27.43
2018-05-27T06:10:24.545Z,27.18
2018-05-27T06:12:53.323Z,26.91
2018-05-27T06:15:22.101Z,26.93
2018-05-27T06:17:51.624Z,27.25
2018-05-27T06:20:20.378Z,27.39
2018-05-27T06:22:49.893Z,27.76
2018-05-27T06:25:18.734Z,27.63
2018-05-27T06:27:48.581Z,27.32
2018-05-27T06:30:17.403Z,27.50
2018-05-27T06:32:46.204Z,27.56
2018-05-27T06:35:14.962Z,27.67
2018-05-27T06:37:43.732Z,27.86
2018-05-27T06:40:12.505Z,28.37
2018-05-27T06:42:41.274Z,28.30
2018-05-27T06:45:10.034Z,28.08
2018-05-27T06:47:38.780Z,28.01
2018-05-27T06:50:07.520Z,28.31
2018-05-27T06:52:36.310Z,28.69
2018-05-27T06:55:05.071Z,28.82
2018-05-27T06:57:33.792Z,28.56
2018-05-27T07:00:02.535Z,29.12
2018-05-27T07:02:31.423Z,28.89
2018-05-27T07:05:00.398Z,28.80
2018-05-27T07:07:29.145Z,28.91
2018-05-27T07:09:58.680Z,28.88
2018-05-27T07:12:27.439Z,29.03
2018-05-27T07:14:56.203Z,28.86
2018-05-27T07:17:25.713Z,28.14
2018-05-27T07:19:54.532Z,28.50
2018-05-27T07:22:23.307Z,29.03
2018-05-27T07:24:52.267Z,29.09
2018-05-27T07:27:21.169Z,28.83
2018-05-27T07:29:50.025Z,28.36
2018-05-27T07:32:19.476Z,28.31
2018-05-27T07:34:48.170Z,28.41
2018-05-27T07:37:16.910Z,28.75
2018-05-27T07:39:46.908Z,28.47
2018-05-27T07:42:15.652Z,28.51
2018-05-27T07:44:44.397Z,28.94
2018-05-27T07:47:13.139Z,28.65
2018-05-27T07:49:42.375Z,28.60
2018-05-27T07:52:11.153Z,27.96
2018-05-27T07:54:39.970Z,28.14
2018-05-27T07:57:08.765Z,28.91
2018-05-27T07:59:37.488Z,29.29
2018-05-27T08:02:06.639Z,29.38
2018-05-27T08:04:35.465Z,29.11
2018-05-27T08:07:04.262Z,29.10
2018-05-27T08:09:32.951Z,29.08
2018-05-27T08:12:01.696Z,29.18
2018-05-27T08:14:30.487Z,29.34
2018-05-27T08:16:59.238Z,29.63
2018-05-27T08:19:28.772Z,29.81
2018-05-27T08:21:57.510Z,29.66
2018-05-27T08:24:26.369Z,29.41
2018-05-27T08:26:55.136Z,29.86
2018-05-27T08:29:23.985Z,29.68
2018-05-27T08:31:52.731Z,29.98
2018-05-27T08:34:21.504Z,29.88
2018-05-27T08:36:51.340Z,30.09
2018-05-27T08:39:21.162Z,29.99
2018-05-27T08:41:49.911Z,29.76
2018-05-27T08:44:18.681Z,29.75
2018-05-27T08:46:47.516Z,29.60
2018-05-27T08:49:17.053Z,30.10
2018-05-27T08:51:46.635Z,30.51
2018-05-27T08:54:15.674Z,30.42
2018-05-27T08:56:45.165Z,30.11
2018-05-27T08:59:13.982Z,30.05
2018-05-27T09:01:42.937Z,30.15
2018-05-27T09:04:11.740Z,29.88
2018-05-27T09:06:40.476Z,29.81
2018-05-27T09:09:09.317Z,29.75
2018-05-27T09:11:38.204Z,30.05
2018-05-27T09:14:06.981Z,30.04
2018-05-27T09:16:35.829Z,29.68
2018-05-27T09:19:04.663Z,29.92
2018-05-27T09:21:34.170Z,29.98
2018-05-27T09:24:02.927Z,30.10
2018-05-27T09:26:31.738Z,29.96
2018-05-27T09:29:00.476Z,30.49
2018-05-27T09:31:29.292Z,31.08
2018-05-27T09:33:58.030Z,31.27
2018-05-27T09:36:27.596Z,31.41
2018-05-27T09:38:56.427Z,31.69
2018-05-27T09:41:25.176Z,31.79
2018-05-27T09:43:53.912Z,31.98
2018-05-27T09:46:23.489Z,31.50
2018-05-27T09:48:52.611Z,30.61
2018-05-27T09:51:21.356Z,30.27
2018-05-27T09:53:50.276Z,29.92
2018-05-27T09:56:19.868Z,30.18
2018-05-27T09:58:48.659Z,29.89
2018-05-27T10:01:17.481Z,30.19
2018-05-27T10:03:46.308Z,30.26
2018-05-27T10:06:15.045Z,30.53
2018-05-27T10:08:43.851Z,30.99
2018-05-27T10:11:12.631Z,31.24
2018-05-27T10:13:41.418Z,31.55
2018-05-27T10:16:10.212Z,31.27
2018-05-27T10:18:39.064Z,31.45
2018-05-27T10:21:07.861Z,31.43
2018-05-27T10:23:36.722Z,31.28
2018-05-27T10:26:05.601Z,31.14
2018-05-27T10:28:34.956Z,31.62
2018-05-27T10:31:04.800Z,30.92
2018-05-27T10:33:34.318Z,31.36
2018-05-27T10:36:03.106Z,31.01
2018-05-27T10:38:32.627Z,30.79
2018-05-27T10:41:01.433Z,30.83
2018-05-27T10:43:30.194Z,31.00
2018-05-27T10:45:59.031Z,31.29
2018-05-27T10:48:28.011Z,32.06
2018-05-27T10:50:57.901Z,31.65
2018-05-27T10:53:27.453Z,31.25
2018-05-27T10:55:56.230Z,30.92
2018-05-27T10:58:24.982Z,30.55
2018-05-27T11:00:55.052Z,30.68
2018-05-27T11:03:24.350Z,30.91
2018-05-27T11:05:55.925Z,30.71
2018-05-27T11:08:24.640Z,30.50
2018-05-27T11:10:55.310Z,30.86
2018-05-27T11:13:24.522Z,30.74
2018-05-27T11:15:53.778Z,30.52
2018-05-27T11:18:22.557Z,30.71
2018-05-27T11:20:52.270Z,31.52
2018-05-27T11:23:21.909Z,32.36
2018-05-27T11:25:50.715Z,32.49
2018-05-27T11:28:19.657Z,32.29
2018-05-27T11:30:48.425Z,32.44
2018-05-27T11:33:17.277Z,31.85
2018-05-27T11:35:46.025Z,32.06
2018-05-27T11:38:14.919Z,31.87
2018-05-27T11:40:44.588Z,31.34
2018-05-27T11:43:13.347Z,30.75
2018-05-27T11:45:42.100Z,30.62
2018-05-27T11:48:10.903Z,30.68
2018-05-27T11:50:39.652Z,30.35
2018-05-27T11:53:08.493Z,30.19
2018-05-27T11:55:37.324Z,30.51
2018-05-27T11:58:06.073Z,31.78
2018-05-27T12:00:34.838Z,31.02
2018-05-27T12:03:03.606Z,31.00
2018-05-27T12:05:32.398Z,31.04
2018-05-27T12:08:01.166Z,31.19
2018-05-27T12:10:30.012Z,31.61
2018-05-27T12:12:58.813Z,31.47
2018-05-27T12:15:28.253Z,30.85
2018-05-27T12:17:58.072Z,31.00
2018-05-27T12:20:27.731Z,31.17
2018-05-27T12:22:57.048Z,31.62
2018-05-27T12:25:26.157Z,31.84
2018-05-27T12:27:54.944Z,30.95
2018-05-27T12:30:23.764Z,30.38
2018-05-27T12:32:52.671Z,30.49
2018-05-27T12:35:22.251Z,30.28
2018-05-27T12:37:51.074Z,30.18
2018-05-27T12:40:19.871Z,30.41
2018-05-27T12:42:48.675Z,30.45
2018-05-27T12:45:17.513Z,30.68
2018-05-27T12:47:46.327Z,30.60
2018-05-27T12:50:15.051Z,30.53
2018-05-27T12:52:43.824Z,30.50
2018-05-27T12:55:12.686Z,30.43
2018-05-27T12:57:42.215Z,30.64
2018-05-27T13:00:11.001Z,30.60
2018-05-27T13:02:39.805Z,30.38
2018-05-27T13:05:08.581Z,30.22
2018-05-27T13:07:38.057Z,30.21
2018-05-27T13:10:08.286Z,30.47
2018-05-27T13:12:37.677Z,30.64
2018-05-27T13:15:06.411Z,30.65
2018-05-27T13:17:35.934Z,30.57
2018-05-27T13:20:04.770Z,30.37
2018-05-27T13:22:33.485Z,30.36
2018-05-27T13:25:02.373Z,30.32
2018-05-27T13:27:31.151Z,30.33
2018-05-27T13:30:00.243Z,30.10
2018-05-27T13:32:29.040Z,30.09
2018-05-27T13:34:57.892Z,29.75
2018-05-27T13:37:27.850Z,29.63
2018-05-27T13:39:58.198Z,29.65
2018-05-27T13:42:27.923Z,29.75
2018-05-27T13:44:56.729Z,29.82
2018-05-27T13:47:25.890Z,29.61
2018-05-27T13:49:54.656Z,29.57
2018-05-27T13:52:23.389Z,29.72
2018-05-27T13:54:52.197Z,29.73
2018-05-27T13:57:20.971Z,29.81
2018-05-27T13:59:49.755Z,29.89
2018-05-27T14:02:18.597Z,29.93
2018-05-27T14:04:47.385Z,29.95
2018-05-27T14:07:16.114Z,29.72
2018-05-27T14:09:44.909Z,29.65
2018-05-27T14:12:13.678Z,29.85
2018-05-27T14:14:42.492Z,29.85
2018-05-27T14:17:11.334Z,29.60
2018-05-27T14:19:40.204Z,29.39
2018-05-27T14:22:09.058Z,29.23
2018-05-27T14:24:38.581Z,29.21
2018-05-27T14:27:07.332Z,29.08
2018-05-27T14:29:36.863Z,29.14
2018-05-27T14:32:05.617Z,28.98
2018-05-27T14:34:34.437Z,29.07
2018-05-27T14:37:03.183Z,29.15
2018-05-27T14:39:33.300Z,29.16
2018-05-27T14:42:02.397Z,28.82
2018-05-27T14:44:31.130Z,28.88
2018-05-27T14:46:59.928Z,28.63
2018-05-27T14:49:29.983Z,28.66
2018-05-27T14:51:59.885Z,28.73
2018-05-27T14:54:30.940Z,28.35
2018-05-27T14:56:59.689Z,28.32
2018-05-27T14:59:30.391Z,28.25
2018-05-27T15:02:01.574Z,28.12
2018-05-27T15:04:33.599Z,28.12
2018-05-27T15:07:04.378Z,27.80
2018-05-27T15:09:33.121Z,27.58
2018-05-27T15:12:03.159Z,27.68
2018-05-27T15:14:31.930Z,27.54
2018-05-27T15:17:01.870Z,27.46
2018-05-27T15:19:31.372Z,27.22
2018-05-27T15:22:00.353Z,26.81
2018-05-27T15:24:31.003Z,26.69
2018-05-27T15:27:00.177Z,26.87
2018-05-27T15:29:30.771Z,27.02
2018-05-27T15:32:00.959Z,26.92
2018-05-27T15:34:32.466Z,27.00
2018-05-27T15:37:01.247Z,26.94
2018-05-27T15:39:31.242Z,26.71
2018-05-27T15:42:01.214Z,26.30
2018-05-27T15:44:31.046Z,26.09
2018-05-27T15:47:00.561Z,26.06
2018-05-27T15:49:29.339Z,26.20
2018-05-27T15:51:58.409Z,26.41
2018-05-27T15:54:27.963Z,26.56
2018-05-27T15:56:56.806Z,26.43
2018-05-27T15:59:27.528Z,26.28
2018-05-27T16:01:56.323Z,25.96
2018-05-27T16:04:25.052Z,25.92
2018-05-27T16:06:55.312Z,26.07
2018-05-27T16:09:24.080Z,26.00
2018-05-27T16:11:52.863Z,26.09
2018-05-27T16:14:21.637Z,26.07
2018-05-27T16:16:50.438Z,26.25
2018-05-27T16:19:19.306Z,26.25
2018-05-27T16:21:48.901Z,25.93
2018-05-27T16:24:18.102Z,25.56
2018-05-27T16:26:47.698Z,25.63
2018-05-27T16:29:16.841Z,25.68
2018-05-27T16:31:46.228Z,25.66
2018-05-27T16:34:14.991Z,25.43
2018-05-27T16:36:45.351Z,25.01
2018-05-27T16:39:14.251Z,24.67
2018-05-27T16:41:43.056Z,24.44
2018-05-27T16:44:12.083Z,24.44
2018-05-27T16:46:40.949Z,24.88
2018-05-27T16:49:10.559Z,25.16
2018-05-27T16:51:39.610Z,25.42
2018-05-27T16:54:08.698Z,25.29
2018-05-27T16:56:37.911Z,25.31
2018-05-27T16:59:08.096Z,24.94
2018-05-27T17:01:36.860Z,24.96
2018-05-27T17:04:05.755Z,25.33
2018-05-27T17:06:35.663Z,25.46
2018-05-27T17:09:04.425Z,24.95
2018-05-27T17:11:33.702Z,24.95
2018-05-27T17:14:02.632Z,24.87
2018-05-27T17:16:33.125Z,24.81
2018-05-27T17:19:03.012Z,25.14
2018-05-27T17:21:33.039Z,25.30
2018-05-27T17:24:03.634Z,25.52
2018-05-27T17:26:32.668Z,25.50
2018-05-27T17:29:01.483Z,25.57
2018-05-27T17:31:30.287Z,25.41
2018-05-27T17:33:59.133Z,25.37
2018-05-27T17:36:30.364Z,25.24
2018-05-27T17:38:59.249Z,25.32
2018-05-27T17:41:28.019Z,25.52
2018-05-27T17:43:57.781Z,25.26
2018-05-27T17:46:26.701Z,25.15
2018-05-27T17:48:55.490Z,25.27
2018-05-27T17:51:25.229Z,25.23
2018-05-27T17:53:54.260Z,25.04
2018-05-27T17:56:23.172Z,24.83
2018-05-27T17:58:53.729Z,24.77
2018-05-27T18:01:22.609Z,24.46
2018-05-27T18:03:52.152Z,24.48
2018-05-27T18:06:20.952Z,24.58
2018-05-27T18:08:49.872Z,24.70
2018-05-27T18:11:20.203Z,24.70
2018-05-27T18:13:49.964Z,24.50
2018-05-27T18:16:19.944Z,24.25
2018-05-27T18:18:48.990Z,24.30
2018-05-27T18:21:18.004Z,24.55
2018-05-27T18:23:46.850Z,24.80
2018-05-27T18:26:16.006Z,24.83
2018-05-27T18:28:44.902Z,24.73
2018-05-27T18:31:14.652Z,24.65
2018-05-27T18:33:43.455Z,24.43
2018-05-27T18:36:12.268Z,24.24
2018-05-27T18:38:41.650Z,24.37
2018-05-27T18:41:10.377Z,24.19
2018-05-27T18:43:39.894Z,24.30
2018-05-27T18:46:09.629Z,24.21
2018-05-27T18:48:38.354Z,24.27
2018-05-27T18:51:07.215Z,24.16
2018-05-27T18:53:36.109Z,24.28
2018-05-27T18:56:05.665Z,24.27
2018-05-27T18:58:35.643Z,24.00
2018-05-27T19:01:06.561Z,23.92
2018-05-27T19:03:35.473Z,23.48
2018-05-27T19:06:04.308Z,23.77
2018-05-27T19:08:33.116Z,23.80
2018-05-27T19:11:02.819Z,23.91
2018-05-27T19:13:31.576Z,24.01
2018-05-27T19:16:00.336Z,24.09
2018-05-27T19:18:29.180Z,23.90
2018-05-27T19:20:57.935Z,24.18
2018-05-27T19:23:28.376Z,24.36
2018-05-27T19:25:58.887Z,24.24
2018-05-27T19:28:27.875Z,24.18
2018-05-27T19:30:56.707Z,24.38
2018-05-27T19:33:26.847Z,24.49
2018-05-27T19:35:55.577Z,24.69
2018-05-27T19:41:22.338Z,24.78
2018-05-27T19:43:51.771Z,24.61
2018-05-27T19:46:20.540Z,24.40
2018-05-27T19:48:49.289Z,24.12
2018-05-27T19:51:18.050Z,23.83
2018-05-27T19:53:47.292Z,23.77
2018-05-27T19:56:16.080Z,23.94
2018-05-27T19:58:44.857Z,24.06
2018-05-27T20:01:13.685Z,24.08
2018-05-27T20:03:42.624Z,24.01
2018-05-27T20:06:12.159Z,23.87
2018-05-27T20:08:40.946Z,23.97
2018-05-27T20:11:09.726Z,23.72
2018-05-27T20:13:38.506Z,23.90
2018-05-27T20:16:07.313Z,23.75
2018-05-27T20:18:37.169Z,24.09
2018-05-27T20:21:08.485Z,24.21
2018-05-27T20:23:37.294Z,23.69
2018-05-27T20:26:07.148Z,23.75
2018-05-27T20:28:35.958Z,23.66
2018-05-27T20:31:04.836Z,23.63
2018-05-27T20:33:36.848Z,23.64
2018-05-27T20:36:05.738Z,23.57
2018-05-27T20:38:35.016Z,23.66
2018-05-27T20:41:04.027Z,23.79
2018-05-27T20:43:32.823Z,23.62
2018-05-27T20:46:01.828Z,23.65
2018-05-27T20:48:30.592Z,23.68
2018-05-27T20:50:59.348Z,23.67
2018-05-27T20:53:29.909Z,23.47
2018-05-27T20:55:59.517Z,23.23
2018-05-27T20:58:28.801Z,23.03
2018-05-27T21:00:57.622Z,22.85
2018-05-27T21:03:26.385Z,22.94
2018-05-27T21:05:55.148Z,22.88
2018-05-27T21:08:23.934Z,23.20
2018-05-27T21:10:53.457Z,23.43
2018-05-27T21:13:22.353Z,23.61
2018-05-27T21:15:51.871Z,23.58
2018-05-27T21:18:20.592Z,23.31
2018-05-27T21:20:49.383Z,23.45
2018-05-27T21:23:18.162Z,23.58
2018-05-27T21:25:46.886Z,23.28
2018-05-27T21:28:18.189Z,23.35
2018-05-27T21:30:49.976Z,23.45
2018-05-27T21:33:22.245Z,23.59
2018-05-27T21:35:57.808Z,23.27
2018-05-27T21:38:29.194Z,23.34
2018-05-27T21:41:01.086Z,23.34
2018-05-27T21:43:32.479Z,23.32
2018-05-27T21:46:03.346Z,23.28
2018-05-27T21:48:42.005Z,23.33
2018-05-27T21:51:18.991Z,23.17
2018-05-27T21:53:50.961Z,23.40
2018-05-27T21:56:25.130Z,23.05
2018-05-27T21:58:59.983Z,23.12
2018-05-27T22:01:39.131Z,23.10
2018-05-27T22:04:15.163Z,22.84
2018-05-27T22:06:49.892Z,22.92
2018-05-27T22:09:24.903Z,23.04
2018-05-27T22:11:57.805Z,23.17
2018-05-27T22:14:30.669Z,23.17
2018-05-27T22:17:03.280Z,23.47
2018-05-27T22:19:36.970Z,23.47
2018-05-27T22:22:09.986Z,23.36
2018-05-27T22:24:43.727Z,23.26
2018-05-27T22:27:18.151Z,23.32
2018-05-27T22:29:53.152Z,23.33
2018-05-27T22:32:26.394Z,23.21
2018-05-27T22:34:58.080Z,23.27
2018-05-27T22:37:32.938Z,22.98
2018-05-27T22:40:10.521Z,23.03
2018-05-27T22:42:45.603Z,23.02
2018-05-27T22:48:03.865Z,23.04
2018-05-27T22:50:34.170Z,23.02
2018-05-27T22:53:12.464Z,23.02
2018-05-27T22:55:46.786Z,23.20
2018-05-27T22:58:23.130Z,23.47
2018-05-27T23:00:55.177Z,23.67
2018-05-27T23:03:27.229Z,23.66
2018-05-27T23:06:01.597Z,23.62
2018-05-27T23:08:35.233Z,23.58
2018-05-27T23:11:10.912Z,23.16
2018-05-27T23:13:43.005Z,23.10
2018-05-27T23:16:18.565Z,23.07
2018-05-27T23:18:50.939Z,22.91
2018-05-27T23:21:25.066Z,22.77
2018-05-27T23:24:00.857Z,22.86
2018-05-27T23:26:33.603Z,22.84
2018-05-27T23:29:05.651Z,22.64
2018-05-27T23:31:45.732Z,22.67
2018-05-27T23:34:21.195Z,22.71
2018-05-27T23:36:55.047Z,22.78
2018-05-27T23:39:27.547Z,22.80
2018-05-27T23:42:04.593Z,22.62
2018-05-27T23:44:38.472Z,22.50
2018-05-27T23:47:16.399Z,22.29
2018-05-27T23:49:54.969Z,22.33
2018-05-27T23:52:31.207Z,22.23
2018-05-27T23:55:07.453Z,22.31
2018-05-27T23:57:41.261Z,22.21
